createdAt,value
2023-12-20T00:00:55.222Z,6.69
2023-12-20T00:03:27.954Z,6.11
2023-12-20T00:05:59.933Z,6.82
2023-12-20T00:08:29.760Z,6.80
2023-12-20T00:10:59.962Z,6.68
2023-12-20T00:13:29.786Z,6.46
2023-12-20T00:16:00.142Z,6.65
2023-12-20T00:18:30.612Z,6.82
2023-12-20T00:21:02.502Z,6.79
2023-12-20T00:23:32.624Z,6.83
2023-12-20T00:26:03.240Z,6.66
2023-12-20T00:28:33.226Z,6.91
2023-12-20T00:31:03.341Z,6.95
2023-12-20T00:33:33.404Z,6.86
2023-12-20T00:36:05.259Z,6.87
2023-12-20T00:38:37.786Z,6.93
2023-12-20T00:41:07.959Z,6.93
2023-12-20T00:43:38.315Z,6.82
2023-12-20T00:46:08.129Z,6.72
2023-12-20T00:48:37.985Z,6.83
2023-12-20T00:51:11.673Z,6.80
2023-12-20T00:53:41.811Z,6.90
2023-12-20T00:56:11.784Z,6.84
2023-12-20T00:58:42.115Z,6.92
2023-12-20T01:01:12.595Z,6.89
2023-12-20T01:03:42.854Z,6.42
2023-12-20T01:06:14.787Z,6.73
2023-12-20T01:08:44.653Z,6.76
2023-12-20T01:11:17.226Z,6.79
2023-12-20T01:13:50.204Z,6.85
2023-12-20T01:16:20.494Z,6.76
2023-12-20T01:18:51.252Z,6.58
2023-12-20T01:21:22.770Z,6.82
2023-12-20T01:23:53.442Z,6.54
2023-12-20T01:26:26.799Z,6.93
2023-12-20T01:28:56.942Z,6.92
2023-12-20T01:31:29.088Z,6.98
2023-12-20T01:33:59.639Z,6.84
2023-12-20T01:36:32.326Z,6.96
2023-12-20T01:39:03.401Z,6.67
2023-12-20T01:41:34.660Z,6.84
2023-12-20T01:44:05.550Z,7.00
2023-12-20T01:46:35.999Z,7.08
2023-12-20T01:49:06.857Z,7.05
2023-12-20T01:51:39.475Z,7.01
2023-12-20T01:54:09.662Z,6.98
2023-12-20T01:56:41.407Z,7.05
2023-12-20T01:59:12.325Z,6.91
2023-12-20T02:01:42.570Z,6.93
2023-12-20T02:04:12.952Z,6.80
2023-12-20T02:06:46.522Z,6.87
2023-12-20T02:09:17.644Z,7.02
2023-12-20T02:11:47.307Z,7.12
2023-12-20T02:14:17.869Z,7.23
2023-12-20T02:16:48.105Z,7.11
2023-12-20T02:19:20.700Z,7.05
2023-12-20T02:22:11.119Z,6.88
2023-12-20T02:24:43.611Z,6.91
2023-12-20T02:27:14.466Z,7.15
2023-12-20T02:29:47.022Z,7.05
2023-12-20T02:32:16.934Z,6.89
2023-12-20T02:34:47.423Z,6.71
2023-12-20T02:37:19.174Z,6.91
2023-12-20T02:39:49.183Z,6.89
2023-12-20T02:42:20.148Z,6.98
2023-12-20T02:44:50.198Z,6.57
2023-12-20T02:47:20.616Z,6.92
2023-12-20T02:49:51.814Z,6.64
2023-12-20T02:52:23.784Z,6.89
2023-12-20T02:54:55.830Z,6.74
2023-12-20T02:57:27.978Z,6.73
2023-12-20T03:00:01.620Z,6.69
2023-12-20T03:02:31.444Z,7.11
2023-12-20T03:05:04.449Z,7.08
2023-12-20T03:07:35.976Z,7.14
2023-12-20T03:10:15.824Z,6.88
2023-12-20T03:12:52.492Z,6.82
2023-12-20T03:15:22.483Z,7.00
2023-12-20T03:17:52.611Z,6.94
2023-12-20T03:20:22.887Z,7.06
2023-12-20T03:22:54.866Z,7.10
2023-12-20T03:25:25.303Z,6.85
2023-12-20T03:27:56.228Z,7.07
2023-12-20T03:30:26.464Z,6.79
2023-12-20T03:32:56.662Z,6.83
2023-12-20T03:35:27.092Z,6.97
2023-12-20T03:37:58.420Z,6.86
2023-12-20T03:40:28.883Z,6.91
2023-12-20T03:42:58.795Z,7.08
2023-12-20T03:45:29.052Z,6.87
2023-12-20T03:47:59.141Z,6.98
2023-12-20T03:50:29.981Z,7.15
2023-12-20T03:53:02.122Z,7.05
2023-12-20T03:55:32.414Z,6.95
2023-12-20T03:58:02.830Z,6.82
2023-12-20T04:00:33.381Z,6.62
2023-12-20T04:03:05.935Z,7.09
2023-12-20T04:05:38.630Z,7.08
2023-12-20T04:08:11.364Z,7.02
2023-12-20T04:10:41.336Z,6.77
2023-12-20T04:13:11.928Z,7.09
2023-12-20T04:15:41.913Z,7.00
2023-12-20T04:18:14.613Z,7.05
2023-12-20T04:20:44.517Z,6.97
2023-12-20T04:23:16.380Z,6.94
2023-12-20T04:25:46.337Z,6.94
2023-12-20T04:28:16.280Z,6.85
2023-12-20T04:30:46.518Z,6.81
2023-12-20T04:33:17.261Z,6.79
2023-12-20T04:35:48.194Z,6.87
2023-12-20T04:38:20.900Z,6.77
2023-12-20T04:40:53.513Z,6.83
2023-12-20T04:43:24.236Z,6.71
2023-12-20T04:45:54.511Z,6.95
2023-12-20T04:48:27.409Z,6.64
2023-12-20T04:50:57.694Z,6.82
2023-12-20T04:53:29.315Z,6.00
2023-12-20T04:55:59.569Z,6.91
2023-12-20T04:58:30.164Z,6.65
2023-12-20T05:01:00.215Z,7.10
2023-12-20T05:03:30.430Z,7.05
2023-12-20T05:06:00.638Z,6.71
2023-12-20T05:08:32.070Z,6.97
2023-12-20T05:11:02.936Z,7.07
2023-12-20T05:13:38.335Z,7.11
2023-12-20T05:16:15.601Z,6.99
2023-12-20T05:18:45.404Z,6.99
2023-12-20T05:21:16.094Z,7.11
2023-12-20T05:23:48.789Z,7.01
2023-12-20T05:26:20.358Z,6.94
2023-12-20T05:28:52.966Z,7.03
2023-12-20T05:31:25.322Z,6.89
2023-12-20T05:33:56.125Z,7.14
2023-12-20T05:36:26.744Z,7.07
2023-12-20T05:38:57.990Z,6.96
2023-12-20T05:41:27.861Z,7.11
2023-12-20T05:43:59.676Z,7.26
2023-12-20T05:46:30.004Z,7.27
2023-12-20T05:49:02.423Z,7.16
2023-12-20T05:51:32.294Z,7.28
2023-12-20T05:54:04.172Z,7.16
2023-12-20T05:56:34.182Z,7.25
2023-12-20T05:59:05.389Z,7.23
2023-12-20T06:01:35.573Z,7.30
2023-12-20T06:04:07.103Z,7.36
2023-12-20T06:06:37.361Z,7.37
2023-12-20T06:09:08.978Z,7.31
2023-12-20T06:11:39.017Z,7.28
2023-12-20T06:14:09.645Z,7.25
2023-12-20T06:16:39.131Z,7.33
2023-12-20T06:19:09.174Z,7.31
2023-12-20T06:21:41.483Z,7.44
2023-12-20T06:24:15.029Z,7.33
2023-12-20T06:26:45.390Z,7.41
2023-12-20T06:29:15.403Z,7.36
2023-12-20T06:31:44.843Z,6.36
2023-12-20T06:34:15.713Z,7.54
2023-12-20T06:36:49.486Z,7.50
2023-12-20T06:39:24.436Z,7.39
2023-12-20T06:41:54.933Z,7.18
2023-12-20T06:44:24.888Z,7.53
2023-12-20T06:46:55.459Z,7.45
2023-12-20T06:49:25.559Z,7.56
2023-12-20T06:51:55.752Z,7.48
2023-12-20T06:54:27.631Z,7.42
2023-12-20T06:56:57.298Z,7.32
2023-12-20T06:59:27.645Z,7.44
2023-12-20T07:01:57.278Z,7.47
2023-12-20T07:04:27.344Z,7.36
2023-12-20T07:06:59.445Z,7.28
2023-12-20T07:09:31.110Z,7.28
2023-12-20T07:12:01.636Z,7.35
2023-12-20T07:14:31.379Z,7.24
2023-12-20T07:17:02.211Z,7.19
2023-12-20T07:19:32.289Z,7.44
2023-12-20T07:22:05.772Z,7.32
2023-12-20T07:24:37.389Z,7.24
2023-12-20T07:27:07.438Z,6.93
2023-12-20T07:29:39.513Z,7.41
2023-12-20T07:32:10.279Z,7.29
2023-12-20T07:34:39.974Z,7.37
2023-12-20T07:37:11.533Z,7.25
2023-12-20T07:39:43.271Z,7.37
2023-12-20T07:42:13.714Z,7.27
2023-12-20T07:44:44.095Z,7.46
2023-12-20T07:47:16.902Z,7.21
2023-12-20T07:49:47.458Z,7.50
2023-12-20T07:52:17.953Z,7.17
2023-12-20T07:54:49.342Z,7.38
2023-12-20T07:57:22.531Z,7.33
2023-12-20T07:59:52.960Z,7.37
2023-12-20T08:02:23.262Z,7.42
2023-12-20T08:04:54.212Z,7.53
2023-12-20T08:07:25.660Z,7.54
2023-12-20T08:09:58.436Z,7.27
2023-12-20T08:12:29.226Z,7.56
2023-12-20T08:15:01.482Z,7.52
2023-12-20T08:17:31.249Z,7.66
2023-12-20T08:20:01.861Z,7.59
2023-12-20T08:22:32.379Z,7.51
2023-12-20T08:25:04.230Z,7.71
2023-12-20T08:27:35.088Z,7.05
2023-12-20T08:30:05.577Z,7.75
2023-12-20T08:32:35.861Z,7.77
2023-12-20T08:35:07.183Z,7.76
2023-12-20T08:37:38.501Z,7.79
2023-12-20T08:40:12.305Z,7.74
2023-12-20T08:42:42.518Z,7.76
2023-12-20T08:45:13.101Z,7.77
2023-12-20T08:47:46.103Z,7.76
2023-12-20T08:50:17.081Z,7.92
2023-12-20T08:52:48.400Z,7.83
2023-12-20T08:55:21.224Z,7.85
2023-12-20T08:57:52.324Z,7.81
2023-12-20T09:00:25.689Z,7.91
2023-12-20T09:02:56.106Z,7.90
2023-12-20T09:05:26.813Z,7.87
2023-12-20T09:07:57.758Z,7.76
2023-12-20T09:10:30.143Z,7.92
2023-12-20T09:13:01.437Z,7.95
2023-12-20T09:15:34.447Z,7.83
2023-12-20T09:18:09.242Z,7.95
2023-12-20T09:20:42.494Z,7.70
2023-12-20T09:23:14.309Z,7.99
2023-12-20T09:25:45.967Z,7.95
2023-12-20T09:28:15.885Z,7.45
2023-12-20T09:30:47.720Z,8.13
2023-12-20T09:33:18.825Z,8.04
2023-12-20T09:35:50.413Z,7.89
2023-12-20T09:38:21.503Z,8.01
2023-12-20T09:40:53.506Z,8.15
2023-12-20T09:43:26.374Z,8.08
2023-12-20T09:46:04.286Z,7.87
2023-12-20T09:48:35.490Z,8.31
2023-12-20T09:51:05.597Z,8.04
2023-12-20T09:53:39.507Z,8.10
2023-12-20T09:56:10.902Z,8.11
2023-12-20T09:58:41.673Z,7.94
2023-12-20T10:01:12.392Z,8.14
2023-12-20T10:03:43.579Z,8.10
2023-12-20T10:06:13.577Z,8.37
2023-12-20T10:08:43.100Z,8.26
2023-12-20T10:11:15.216Z,8.32
2023-12-20T10:13:50.727Z,8.22
2023-12-20T10:16:28.645Z,8.29
2023-12-20T10:18:59.537Z,8.46
2023-12-20T10:21:33.276Z,8.43
2023-12-20T10:24:03.878Z,8.36
2023-12-20T10:26:35.709Z,8.29
2023-12-20T10:29:06.027Z,8.17
2023-12-20T10:31:37.477Z,8.31
2023-12-20T10:34:07.841Z,8.29
2023-12-20T10:36:38.125Z,8.24
2023-12-20T10:39:11.107Z,8.17
2023-12-20T10:41:46.217Z,8.12
2023-12-20T10:44:17.913Z,7.79
2023-12-20T10:46:52.815Z,8.27
2023-12-20T10:49:24.116Z,8.32
2023-12-20T10:51:58.725Z,8.33
2023-12-20T10:54:28.891Z,8.04
2023-12-20T10:57:01.503Z,8.36
2023-12-20T10:59:35.921Z,8.42
2023-12-20T11:02:07.459Z,8.48
2023-12-20T11:04:47.681Z,8.62
2023-12-20T11:07:25.418Z,8.61
2023-12-20T11:10:02.763Z,8.23
2023-12-20T11:12:44.479Z,7.76
2023-12-20T11:15:15.221Z,8.71
2023-12-20T11:17:51.031Z,8.43
2023-12-20T11:20:26.055Z,8.43
2023-12-20T11:22:58.448Z,8.48
2023-12-20T11:25:29.651Z,8.14
2023-12-20T11:28:15.064Z,8.73
2023-12-20T11:30:49.364Z,8.62
2023-12-20T11:33:28.650Z,8.75
2023-12-20T11:36:01.415Z,8.60
2023-12-20T11:38:39.282Z,8.71
2023-12-20T11:41:10.010Z,8.50
2023-12-20T11:43:42.810Z,8.46
2023-12-20T11:46:13.001Z,8.80
2023-12-20T11:48:45.785Z,8.81
2023-12-20T11:51:16.418Z,8.80
2023-12-20T11:53:47.501Z,8.51
2023-12-20T11:56:18.286Z,8.83
2023-12-20T11:58:51.445Z,8.66
2023-12-20T12:01:23.149Z,8.76
2023-12-20T12:04:05.958Z,8.34
2023-12-20T12:06:36.892Z,8.73
2023-12-20T12:09:06.505Z,7.77
2023-12-20T12:11:40.074Z,8.96
2023-12-20T12:14:18.766Z,8.74
2023-12-20T12:16:49.017Z,8.81
2023-12-20T12:19:28.787Z,8.79
2023-12-20T12:22:10.154Z,8.87
2023-12-20T12:24:40.956Z,8.71
2023-12-20T12:27:15.071Z,8.79
2023-12-20T12:30:06.542Z,8.80
2023-12-20T12:32:37.516Z,8.70
2023-12-20T12:35:08.258Z,8.90
2023-12-20T12:37:39.956Z,8.78
2023-12-20T12:40:12.626Z,8.68
2023-12-20T12:42:43.586Z,8.79
2023-12-20T12:45:15.724Z,8.81
2023-12-20T12:47:47.004Z,8.76
2023-12-20T12:50:17.991Z,8.74
2023-12-20T12:52:48.550Z,8.72
2023-12-20T12:55:19.245Z,8.73
2023-12-20T12:57:53.892Z,8.75
2023-12-20T13:00:26.538Z,8.65
2023-12-20T13:02:57.370Z,8.72
2023-12-20T13:05:27.977Z,8.64
2023-12-20T13:08:01.001Z,8.80
2023-12-20T13:10:31.176Z,8.76
2023-12-20T13:13:01.792Z,8.81
2023-12-20T13:15:33.916Z,8.76
2023-12-20T13:18:03.902Z,8.65
2023-12-20T13:20:34.848Z,8.75
2023-12-20T13:23:05.412Z,8.87
2023-12-20T13:25:37.958Z,8.75
2023-12-20T13:28:10.063Z,8.80
2023-12-20T13:30:42.064Z,8.78
2023-12-20T13:33:13.412Z,8.79
2023-12-20T13:35:43.464Z,8.69
2023-12-20T13:38:15.706Z,8.64
2023-12-20T13:40:48.861Z,8.81
2023-12-20T13:43:22.374Z,8.70
2023-12-20T13:45:54.267Z,8.53
2023-12-20T13:48:24.512Z,8.66
2023-12-20T13:50:56.378Z,8.84
2023-12-20T13:53:26.870Z,8.84
2023-12-20T13:56:01.554Z,8.87
2023-12-20T13:58:32.451Z,8.74
2023-12-20T14:01:05.562Z,8.57
2023-12-20T14:03:35.362Z,8.59
2023-12-20T14:06:06.180Z,8.69
2023-12-20T14:08:39.951Z,8.80
2023-12-20T14:11:10.730Z,8.62
2023-12-20T14:13:41.296Z,8.76
2023-12-20T14:16:13.965Z,8.62
2023-12-20T14:18:45.180Z,8.74
2023-12-20T14:21:15.566Z,8.81
2023-12-20T14:23:49.007Z,8.87
2023-12-20T14:26:22.859Z,8.70
2023-12-20T14:28:55.258Z,8.74
2023-12-20T14:31:27.862Z,8.87
2023-12-20T14:33:58.147Z,8.81
2023-12-20T14:36:28.482Z,8.64
2023-12-20T14:39:01.505Z,8.65
2023-12-20T14:41:33.474Z,8.66
2023-12-20T14:44:07.184Z,8.79
2023-12-20T14:46:41.980Z,8.56
2023-12-20T14:49:12.961Z,8.61
2023-12-20T14:51:46.274Z,8.70
2023-12-20T14:54:16.893Z,8.78
2023-12-20T14:56:47.745Z,8.50
2023-12-20T14:59:20.789Z,8.60
2023-12-20T15:01:52.952Z,8.55
2023-12-20T15:04:30.085Z,8.67
2023-12-20T15:07:02.063Z,8.64
2023-12-20T15:09:32.381Z,8.69
2023-12-20T15:12:02.982Z,8.73
2023-12-20T15:14:33.404Z,7.83
2023-12-20T15:17:05.164Z,8.58
2023-12-20T15:19:35.516Z,8.65
2023-12-20T15:22:07.533Z,8.58
2023-12-20T15:24:41.949Z,8.41
2023-12-20T15:27:11.674Z,8.76
2023-12-20T15:29:41.850Z,8.62
2023-12-20T15:32:13.962Z,8.67
2023-12-20T15:34:43.881Z,8.55
2023-12-20T15:37:14.404Z,8.54
2023-12-20T15:39:45.773Z,8.63
2023-12-20T15:42:15.678Z,8.55
2023-12-20T15:44:45.666Z,6.43
2023-12-20T15:47:17.398Z,8.43
2023-12-20T15:49:50.795Z,8.26
2023-12-20T15:52:20.668Z,8.44
2023-12-20T15:54:53.322Z,8.41
2023-12-20T15:57:25.269Z,8.41
2023-12-20T15:59:55.498Z,8.36
2023-12-20T16:02:27.312Z,8.52
2023-12-20T16:04:57.570Z,8.54
2023-12-20T16:07:28.405Z,8.50
2023-12-20T16:09:58.440Z,8.23
2023-12-20T16:12:29.274Z,8.39
2023-12-20T16:14:58.615Z,8.34
2023-12-20T16:17:30.223Z,8.44
2023-12-20T16:20:00.459Z,8.39
2023-12-20T16:22:30.915Z,8.29
2023-12-20T16:25:01.079Z,8.35
2023-12-20T16:27:31.049Z,8.09
2023-12-20T16:30:01.052Z,8.26
2023-12-20T16:32:31.935Z,8.15
2023-12-20T16:35:06.231Z,8.32
2023-12-20T16:37:39.448Z,8.30
2023-12-20T16:40:10.751Z,8.23
2023-12-20T16:42:39.801Z,8.20
2023-12-20T16:45:12.205Z,8.22
2023-12-20T16:47:43.903Z,8.13
2023-12-20T16:50:14.585Z,8.12
2023-12-20T16:52:47.467Z,8.09
2023-12-20T16:55:17.499Z,7.96
2023-12-20T16:57:47.885Z,7.27
2023-12-20T17:00:19.433Z,8.22
2023-12-20T17:02:51.815Z,8.22
2023-12-20T17:05:22.575Z,7.65
2023-12-20T17:07:53.322Z,8.12
2023-12-20T17:10:23.536Z,8.27
2023-12-20T17:12:54.193Z,8.12
2023-12-20T17:15:27.308Z,8.35
2023-12-20T17:17:59.015Z,8.33
2023-12-20T17:20:29.517Z,7.83
2023-12-20T17:23:00.420Z,8.22
2023-12-20T17:25:32.302Z,8.26
2023-12-20T17:28:02.277Z,8.30
2023-12-20T17:30:32.628Z,8.20
2023-12-20T17:33:05.828Z,8.28
2023-12-20T17:35:36.258Z,8.40
2023-12-20T17:38:06.967Z,8.27
2023-12-20T17:40:40.948Z,8.42
2023-12-20T17:43:11.294Z,8.32
2023-12-20T17:45:43.928Z,8.44
2023-12-20T17:48:15.741Z,8.34
2023-12-20T17:50:46.983Z,8.42
2023-12-20T17:53:18.180Z,8.41
2023-12-20T17:55:48.573Z,8.51
2023-12-20T17:58:21.611Z,8.37
2023-12-20T18:00:52.398Z,8.37
2023-12-20T18:03:25.644Z,7.42
2023-12-20T18:05:56.541Z,8.58
2023-12-20T18:08:28.493Z,7.32
2023-12-20T18:10:58.909Z,8.38
2023-12-20T18:13:28.960Z,8.56
2023-12-20T18:15:59.386Z,8.37
2023-12-20T18:18:30.963Z,8.56
2023-12-20T18:21:01.651Z,8.58
2023-12-20T18:23:32.229Z,8.42
2023-12-20T18:26:02.127Z,8.41
2023-12-20T18:28:34.998Z,8.54
2023-12-20T18:31:08.172Z,8.43
2023-12-20T18:33:39.651Z,8.46
2023-12-20T18:36:09.876Z,8.52
2023-12-20T18:38:39.827Z,8.54
2023-12-20T18:41:10.096Z,8.47
2023-12-20T18:43:41.101Z,8.61
2023-12-20T18:46:10.930Z,8.65
2023-12-20T18:48:44.668Z,8.71
2023-12-20T18:51:14.819Z,8.49
2023-12-20T18:53:47.276Z,8.39
2023-12-20T18:56:17.753Z,8.58
2023-12-20T18:58:49.544Z,8.49
2023-12-20T19:01:20.014Z,8.47
2023-12-20T19:03:51.892Z,8.62
2023-12-20T19:06:22.498Z,8.64
2023-12-20T19:08:54.176Z,8.29
2023-12-20T19:11:25.032Z,8.63
2023-12-20T19:13:55.139Z,8.41
2023-12-20T19:16:25.347Z,8.66
2023-12-20T19:18:57.073Z,8.63
2023-12-20T19:21:27.710Z,8.61
2023-12-20T19:23:58.989Z,8.60
2023-12-20T19:26:29.534Z,8.46
2023-12-20T19:29:00.797Z,8.63
2023-12-20T19:31:31.151Z,7.80
2023-12-20T19:34:03.284Z,8.71
2023-12-20T19:36:33.940Z,8.60
2023-12-20T19:39:04.080Z,8.74
2023-12-20T19:41:34.360Z,8.68
2023-12-20T19:44:04.550Z,8.62
2023-12-20T19:46:35.373Z,8.62
2023-12-20T19:50:12.918Z,8.59
2023-12-20T19:52:44.729Z,8.77
2023-12-20T19:55:16.456Z,8.64
2023-12-20T19:57:46.864Z,8.67
2023-12-20T20:00:18.382Z,8.73
2023-12-20T20:02:48.848Z,8.79
2023-12-20T20:05:19.680Z,8.66
2023-12-20T20:07:51.504Z,8.79
2023-12-20T20:10:22.484Z,8.79
2023-12-20T20:12:53.267Z,8.94
2023-12-20T20:15:23.511Z,8.83
2023-12-20T20:17:54.633Z,8.77
2023-12-20T20:20:25.303Z,9.02
2023-12-20T20:22:56.868Z,8.95
2023-12-20T20:25:28.864Z,9.01
2023-12-20T20:28:00.526Z,9.11
2023-12-20T20:30:30.850Z,9.08
2023-12-20T20:33:04.579Z,9.22
2023-12-20T20:35:35.266Z,9.10
2023-12-20T20:38:08.454Z,9.10
2023-12-20T20:40:38.769Z,8.90
2023-12-20T20:43:09.441Z,9.15
2023-12-20T20:45:39.492Z,9.12
2023-12-20T20:48:21.393Z,9.10
2023-12-20T20:51:00.453Z,9.11
2023-12-20T20:53:32.228Z,8.30
2023-12-20T20:56:03.259Z,9.13
2023-12-20T20:58:34.623Z,9.06
2023-12-20T21:01:04.608Z,9.18
2023-12-20T21:03:35.153Z,9.18
2023-12-20T21:06:05.437Z,9.29
2023-12-20T21:08:37.242Z,9.19
2023-12-20T21:11:07.233Z,9.15
2023-12-20T21:13:40.795Z,9.10
2023-12-20T21:16:15.990Z,9.13
2023-12-20T21:18:49.268Z,9.33
2023-12-20T21:21:20.225Z,9.41
2023-12-20T21:23:52.033Z,9.20
2023-12-20T21:26:22.222Z,9.06
2023-12-20T21:28:52.293Z,9.31
2023-12-20T21:31:23.514Z,9.30
2023-12-20T21:33:54.378Z,9.30
2023-12-20T21:36:26.926Z,9.40
2023-12-20T21:38:58.556Z,9.34
2023-12-20T21:41:28.404Z,9.29
2023-12-20T21:43:58.664Z,9.40
2023-12-20T21:46:30.372Z,9.44
2023-12-20T21:49:00.417Z,9.44
2023-12-20T21:51:29.804Z,9.40
2023-12-20T21:54:06.219Z,9.38
2023-12-20T21:56:38.207Z,9.38
2023-12-20T21:59:08.944Z,9.16
2023-12-20T22:01:43.643Z,9.30
2023-12-20T22:04:14.599Z,9.35
2023-12-20T22:06:44.595Z,9.32
2023-12-20T22:09:15.598Z,9.57
2023-12-20T22:11:45.794Z,9.39
2023-12-20T22:14:15.509Z,9.33
2023-12-20T22:16:45.609Z,9.37
2023-12-20T22:19:18.840Z,9.59
2023-12-20T22:21:48.814Z,9.49
2023-12-20T22:24:20.046Z,9.38
2023-12-20T22:26:50.205Z,9.36
2023-12-20T22:29:20.498Z,9.44
2023-12-20T22:31:50.341Z,8.68
2023-12-20T22:34:23.448Z,9.32
2023-12-20T22:36:53.450Z,9.61
2023-12-20T22:39:24.836Z,9.39
2023-12-20T22:41:57.148Z,8.46
2023-12-20T22:44:26.914Z,9.56
2023-12-20T22:46:57.615Z,9.58
2023-12-20T22:49:28.657Z,9.43
2023-12-20T22:51:59.252Z,9.50
2023-12-20T22:54:30.723Z,9.55
2023-12-20T22:57:00.756Z,9.57
2023-12-20T22:59:30.307Z,9.59
2023-12-20T23:02:00.732Z,9.56
2023-12-20T23:04:33.174Z,9.62
2023-12-20T23:07:02.782Z,9.56
2023-12-20T23:09:33.977Z,9.44
2023-12-20T23:12:03.901Z,9.46
2023-12-20T23:14:36.235Z,9.63
2023-12-20T23:17:06.457Z,9.61
2023-12-20T23:19:36.966Z,9.52
2023-12-20T23:22:07.346Z,9.35
2023-12-20T23:24:38.594Z,9.50
2023-12-20T23:27:09.363Z,9.65
2023-12-20T23:29:40.017Z,9.62
2023-12-20T23:32:10.320Z,9.74
2023-12-20T23:34:40.235Z,9.57
2023-12-20T23:37:12.846Z,9.61
2023-12-20T23:39:44.044Z,9.40
2023-12-20T23:42:15.622Z,9.42
2023-12-20T23:44:46.556Z,9.57
2023-12-20T23:47:16.912Z,9.46
2023-12-20T23:49:46.818Z,9.32
2023-12-20T23:52:16.431Z,9.72
2023-12-20T23:54:48.077Z,9.65
2023-12-20T23:57:18.335Z,9.75
2023-12-20T23:59:48.697Z,9.71
